• Join FlightAware (Why Join?)
  • Login
  • US Flag 
11:57AM EDT


 

Airport Tracker/Info


-or-


 

Live Flight TrackerFlight Track Log ✈ SWA2975 ✈ 24-Oct-2013 ✈ KATL - KSDF

Flight Track Log - Related Links

Times and Time Zones

All times are in EDT time to prevent confusion due to time zone crossing. See the SWA2975 flight status page for this flight to view local times or setup timezone preferences in your user account.

Time Position Orientation Groundspeed Altitude Reporting Facility
EDT Latitude Longitude Course Direction KTS MPH feet Rate Location/Type
09:47PM 33.6661 -84.5181 293° West 271 312 5,200  Level Atlanta Center
09:48PM 33.6992 -84.5806 302° West 247 284 9,100 3,540 Climbing Atlanta Center
09:49PM 33.7764 -84.5861 357° North 276 318 12,300 3,300 Climbing Atlanta Center
09:50PM 33.8767 -84.5842 North 303 349 15,700 3,180 Climbing Atlanta Center
09:51PM 33.9747 -84.5850 360° North 328 377 18,700 2,880 Climbing Atlanta Center
09:52PM 34.0769 -84.5881 359° North 349 402 21,500 2,760 Climbing Atlanta Center
09:53PM 34.1894 -84.5914 359° North 393 452 24,300 2,520 Climbing Atlanta Center
09:54PM 34.3022 -84.5994 357° North 405 466 26,600 2,100 Climbing Atlanta Center
09:55PM 34.4169 -84.6256 349° North 405 466 28,500 1,920 Climbing Atlanta Center
09:56PM 34.5211 -84.6489 350° North 410 472 30,500 2,220 Climbing Atlanta Center
09:57PM 34.6358 -84.6597 356° North 418 481 33,000 1,740 Climbing Atlanta Center
09:58PM 34.7569 -84.6733 355° North 405 466 34,000 480 Climbing Atlanta Center
09:59PM 34.8717 -84.6844 355° North 405 466 34,000  Level Atlanta Center
10:00PM 34.9842 -84.6978 354° North 405 466 34,000  Level Atlanta Center
10:01PM 35.1008 -84.7089 356° North 405 466 34,000  Level Atlanta Center
10:02PM 35.2178 -84.7175 357° North 405 466 34,000  Level Atlanta Center
10:03PM 35.3303 -84.7286 355° North 405 466 34,000  Level Atlanta Center
10:04PM 35.4450 -84.7397 355° North 405 466 34,000  Level Atlanta Center
10:05PM 35.5597 -84.7511 355° North 405 466 34,000  Level Atlanta Center
10:06PM 35.6722 -84.7597 356° North 405 466 34,000  Level Atlanta Center
10:07PM 35.7850 -84.7683 356° North 405 466 34,000  Level Atlanta Center
10:09PM 36.0253 -84.7922 355° North 405 466 34,000  Level Indianapolis Center
10:10PM 36.1353 -84.8033 355° North 402 463 34,000 -960 Level Indianapolis Center
10:11PM 36.2442 -84.8136 356° North 396 456 32,100 -1,980 Descending Indianapolis Center
10:12PM 36.3564 -84.8247 355° North 400 460 30,000 -1,080 Descending Indianapolis Center
10:13PM 36.4911 -84.8386 355° North 404 465 30,000 -420 Level Indianapolis Center
10:14PM 36.5997 -84.8486 356° North 396 456 29,200 -960 Descending Indianapolis Center
10:15PM 36.7050 -84.8581 356° North 382 440 28,100 -1,080 Descending Indianapolis Center
10:16PM 36.8097 -84.8692 355° North 378 435 27,100 -1,020 Descending Indianapolis Center
10:17PM 36.9111 -84.8794 355° North 368 423 26,100 -1,140 Descending Indianapolis Center
10:18PM 37.0106 -84.8903 355° North 358 412 24,900 -1,380 Descending Indianapolis Center
10:19PM 37.1083 -84.8975 357° North 340 391 23,300 -1,860 Descending Indianapolis Center
10:20PM 37.1906 -84.9075 354° North 300 345 21,200 -2,160 Descending Indianapolis Center
10:21PM 37.2706 -84.9156 355° North 288 331 19,000 -1,860 Descending Indianapolis Center
10:22PM 37.3483 -84.9231 356° North 280 322 17,500 -1,680 Descending Indianapolis Center
10:23PM 37.4258 -84.9306 356° North 276 318 15,600 -1,740 Descending Indianapolis Center
10:25PM 37.5031 -84.9383 355° North 276 318 14,000 -1,620 Descending Indianapolis Center
10:26PM 37.5797 -84.9458 356° North 275 316 12,400 -1,560 Descending Indianapolis Center
10:27PM 37.6550 -84.9567 354° North 272 313 10,900 -1,200 Descending Indianapolis Center
10:28PM 37.7031 -85.0208 313° West 252 290 10,000 -420 Descending Indianapolis Center
10:29PM 37.7542 -85.0914 313° West 268 308 10,100  Climbing Indianapolis Center
10:30PM 37.7928 -85.1992 294° West 286 329 10,100 -120 Level Indianapolis Center
10:31PM 37.8158 -85.2947 287° West 283 326 9,900 -600 Descending Indianapolis Center
10:32PM 37.8356 -85.3675 289° West 255 293 9,000 -1,140 Descending Indianapolis Center
10:33PM 37.8569 -85.4542 287° West 255 293 7,600 -1,440 Descending Indianapolis Center
10:34PM 37.8781 -85.5383 288° West 252 290 6,100 -1,140 Descending Indianapolis Center
10:35PM 37.8989 -85.6225 287° West 251 289 5,300 -660 Descending Indianapolis Center
10:36PM 37.9389 -85.6650 320° Northwest 229 264 4,800 -840 Descending Indianapolis Center
10:37PM 37.9997 -85.6867 344° North 202 232 3,700 -1,080 Descending Indianapolis Center
10:38PM 38.0506 -85.7031 346° North 193 222 2,700 -780 Descending Indianapolis Center
10:39PM 38.0897 -85.7156 346° North 186 214 2,200 -540 Descending Indianapolis Center
10:41PM 38.1741 -85.7365 345° North  Level Estimated
10:48PM 38.1741 -85.7365 208° Southwest  Level Estimated
10:49PM 38.1741 -85.7365 208° Southwest  Level Estimated